LFMV/AVN METAR and TAF weather

Enter ICAO airport designator
Station Type Date Time Source
LFMV METAR 2019/12/07 07:30 UTC NOAA

LFMV 070730Z AUTO 12002KT 7000 NSC M00/M01 Q1021 BECMG 35015KT


Station Type Date Time Source
LFMV Decoded METAR 2019/12/07 07:30 UTC NOAA

Station name not available
Dec 07, 2019 - 02:30 AM EST / 2019.12.07 0730 UTC
Wind: from the ESE (120 degrees) at 2 MPH (2 KT):0
Visibility: 4 mile(s):0
Temperature: 32 F (0 C)
Dew Point: 30 F (-1 C)
Relative Humidity: 92%
Pressure (altimeter): 30.15 in. Hg (1021 hPa)
ob: LFMV 070730Z AUTO 12002KT 7000 NSC M00/M01 Q1021 BECMG 35015KT
cycle: 7

Station Type Date Time Source
LFMV TAF 2019/12/07 03:00 UTC NOAA

TAF LFMV 070200Z 0703/0803 VRB03KT CAVOK
TEMPO 0703/0708 5000 BR PROB40
TEMPO 0703/0708 1500 MIFG PROB30
TEMPO 0705/0708 0800 FZFG VV///
BECMG 0709/0711 35015KT CAVOK
BECMG 0723/0801 VRB03KT

Example: see airport list